Time,TemperatureF,DewpointF,PressureIn,WindDirection,WindDirectionDegrees,WindSpeedMPH,WindSpeedGustMPH,Humidity,HourlyPrecipIn,Conditions,Clouds,dailyrainin,SoftwareType,DateUTC
2013-04-15 00:09:00,54.3,40.7,28.15,ENE,63,0.0,2.0,60,0.00,CLR,,0.00,WeatherDisplay:10.37,2013-04-15 04:09:00,
2013-04-15 00:19:00,54.0,43.2,28.12,NNE,28,1.0,2.0,67,0.00,CLR,,0.00,WeatherDisplay:10.37,2013-04-15 04:19:00,
2013-04-15 00:29:00,53.8,44.2,28.12,NE,48,1.0,3.0,70,0.00,CLR,,0.00,WeatherDisplay:10.37,2013-04-15 04:29:00,
2013-04-15 00:39:00,53.8,44.2,28.12,ESE,103,0.0,2.0,70,0.00,CLR,,0.00,WeatherDisplay:10.37,2013-04-15 04:39:00,
2013-04-15 00:49:00,53.2,43.3,28.12,ENE,58,0.0,1.0,69,0.00,CLR,,0.00,WeatherDisplay:10.37,2013-04-15 04:49:00,
2013-04-15 00:59:00,53.2,43.3,28.12,NE,44,0.0,2.0,69,0.00,CLR,,0.00,WeatherDisplay:10.37,2013-04-15 04:59:00,
2013-04-15 01:09:00,53.1,44.0,28.12,NNE,16,0.0,1.0,71,0.00,CLR,,0.00,WeatherDisplay:10.37,2013-04-15 05:09:00,
2013-04-15 01:19:00,52.9,44.5,28.12,NE,34,0.0,1.0,73,0.00,CLR,,0.00,WeatherDisplay:10.37,2013-04-15 05:19:00,
2013-04-15 01:29:00,52.9,44.1,28.12,NNW,343,0.0,3.0,72,0.00,CLR,,0.00,WeatherDisplay:10.37,2013-04-15 05:29:00,
2013-04-15 01:39:00,52.7,43.6,28.12,NNW,328,0.0,0.0,71,0.00,CLR,,0.00,WeatherDisplay:10.37,2013-04-15 05:39:00,
2013-04-15 01:49:00,52.7,44.3,28.09,NNE,30,1.0,1.0,73,0.00,CLR,,0.00,WeatherDisplay:10.37,2013-04-15 05:49:00,
2013-04-15 01:59:00,52.7,44.3,28.09,North,9,0.0,3.0,73,0.00,CLR,,0.00,WeatherDisplay:10.37,2013-04-15 05:59:00,
2013-04-15 02:09:00,52.9,45.9,28.09,NNE,22,0.0,3.0,77,0.00,CLR,,0.00,WeatherDisplay:10.37,2013-04-15 06:09:00,
2013-04-15 02:19:00,53.1,47.4,28.09,NE,44,2.0,4.0,81,0.00,CLR,,0.00,WeatherDisplay:10.37,2013-04-15 06:19:00,
2013-04-15 02:29:00,53.2,46.6,28.09,NNE,29,1.0,3.0,78,0.00,CLR,,0.00,WeatherDisplay:10.37,2013-04-15 06:29:00,
2013-04-15 02:39:00,53.2,46.2,28.09,NNE,23,1.0,5.0,77,0.00,CLR,,0.00,WeatherDisplay:10.37,2013-04-15 06:39:00,
2013-04-15 02:49:00,53.4,46.0,28.09,NNE,22,2.0,5.0,76,0.00,CLR,,0.00,WeatherDisplay:10.37,2013-04-15 06:49:00,
2013-04-15 02:59:00,53.4,46.0,28.09,NNE,15,2.0,4.0,76,0.00,CLR,,0.00,WeatherDisplay:10.37,2013-04-15 06:59:00,
2013-04-15 03:49:00,53.2,45.5,28.09,NNE,17,0.0,4.0,75,0.00,CLR,,0.00,WeatherDisplay:10.37,2013-04-15 07:49:00,
2013-04-15 03:59:00,53.2,47.6,28.09,NNE,20,2.0,5.0,81,0.00,CLR,,0.00,WeatherDisplay:10.37,2013-04-15 07:59:00,
2013-04-15 04:09:00,53.2,47.2,28.07,NNE,31,2.0,5.0,80,0.00,CLR,,0.00,WeatherDisplay:10.37,2013-04-15 08:09:00,
2013-04-15 04:19:00,53.4,46.4,28.07,NE,44,2.0,4.0,77,0.00,CLR,,0.00,WeatherDisplay:10.37,2013-04-15 08:19:00,
2013-04-15 04:29:00,53.4,46.4,28.07,NE,40,2.0,5.0,77,0.00,CLR,,0.00,WeatherDisplay:10.37,2013-04-15 08:29:00,
2013-04-15 04:49:00,53.4,45.7,28.07,NNE,13,1.0,4.0,75,0.00,CLR,,0.00,WeatherDisplay:10.37,2013-04-15 08:49:00,
2013-04-15 04:59:00,53.6,45.5,28.07,NNE,17,1.0,5.0,74,0.00,CLR,,0.00,WeatherDisplay:10.37,2013-04-15 08:59:00,
2013-04-15 05:09:00,53.4,45.0,28.07,NW,308,0.0,3.0,73,0.00,CLR,,0.00,WeatherDisplay:10.37,2013-04-15 09:09:00,
2013-04-15 05:19:00,53.4,45.0,28.07,ESE,113,1.0,2.0,73,0.00,CLR,,0.00,WeatherDisplay:10.37,2013-04-15 09:19:00,
2013-04-15 05:29:00,53.4,45.0,28.07,WNW,286,0.0,2.0,73,0.00,CLR,,0.00,WeatherDisplay:10.37,2013-04-15 09:29:00,
2013-04-15 05:39:00,53.4,45.7,28.07,NNE,12,1.0,3.0,75,0.00,CLR,,0.00,WeatherDisplay:10.37,2013-04-15 09:39:00,
2013-04-15 05:49:00,53.4,45.3,28.07,NNW,347,0.0,2.0,74,0.00,CLR,,0.00,WeatherDisplay:10.37,2013-04-15 09:49:00,
2013-04-15 05:59:00,53.4,45.3,28.07,NE,54,1.0,3.0,74,0.00,CLR,,0.00,WeatherDisplay:10.37,2013-04-15 09:59:00,
2013-04-15 06:09:00,53.6,45.5,28.07,NNW,339,0.0,2.0,74,0.00,CLR,,0.00,WeatherDisplay:10.37,2013-04-15 10:09:00,
2013-04-15 06:19:00,53.6,45.5,28.07,SSE,161,0.0,2.0,74,0.00,CLR,,0.00,WeatherDisplay:10.37,2013-04-15 10:19:00,
2013-04-15 06:29:00,53.4,45.3,28.07,NNW,336,0.0,2.0,74,0.00,CLR,,0.00,WeatherDisplay:10.37,2013-04-15 10:29:00,
2013-04-15 06:39:00,53.6,46.6,28.09,North,352,0.0,2.0,77,0.00,CLR,,0.00,WeatherDisplay:10.37,2013-04-15 10:39:00,
2013-04-15 06:49:00,53.6,45.9,28.09,NNE,15,0.0,3.0,75,0.00,CLR,,0.00,WeatherDisplay:10.37,2013-04-15 10:49:00,
2013-04-15 06:59:00,53.6,45.9,28.09,SW,236,0.0,1.0,75,0.00,CLR,,0.00,WeatherDisplay:10.37,2013-04-15 10:59:00,
2013-04-15 07:09:00,53.6,45.5,28.09,ENE,74,0.0,3.0,74,0.00,CLR,,0.00,WeatherDisplay:10.37,2013-04-15 11:09:00,
2013-04-15 07:19:00,53.8,46.0,28.09,WNW,301,0.0,3.0,75,0.00,CLR,,0.00,WeatherDisplay:10.37,2013-04-15 11:19:00,
2013-04-15 07:29:00,54.1,47.1,28.09,NNE,20,2.0,4.0,77,0.00,CLR,,0.00,WeatherDisplay:10.37,2013-04-15 11:29:00,
2013-04-15 07:39:00,54.2,46.4,28.09,North,354,0.0,2.0,75,0.00,CLR,,0.00,WeatherDisplay:10.37,2013-04-15 11:39:00,
2013-04-15 07:49:00,54.5,46.7,28.12,North,359,1.0,4.0,75,0.00,CLR,,0.00,WeatherDisplay:10.37,2013-04-15 11:49:00,
2013-04-15 07:59:00,54.5,46.7,28.12,NNE,19,0.0,2.0,75,0.00,CLR,,0.00,WeatherDisplay:10.37,2013-04-15 11:59:00,
2013-04-15 08:09:00,54.9,47.1,28.12,North,349,0.0,2.0,75,0.00,CLR,,0.00,WeatherDisplay:10.37,2013-04-15 12:09:00,
2013-04-15 08:19:00,55.0,47.3,28.12,North,358,1.0,4.0,75,0.00,CLR,,0.00,WeatherDisplay:10.37,2013-04-15 12:19:00,
2013-04-15 08:29:00,55.2,47.1,28.12,NNE,12,0.0,3.0,74,0.00,CLR,,0.00,WeatherDisplay:10.37,2013-04-15 12:29:00,
2013-04-15 08:49:00,55.4,47.2,28.12,North,4,2.0,5.0,74,0.00,CLR,,0.00,WeatherDisplay:10.37,2013-04-15 12:49:00,
2013-04-15 08:59:00,55.6,47.1,28.12,NNE,21,2.0,5.0,73,0.00,CLR,,0.00,WeatherDisplay:10.37,2013-04-15 12:59:00,
2013-04-15 09:09:00,55.8,46.9,28.12,NNE,18,2.0,6.0,72,0.00,CLR,,0.00,WeatherDisplay:10.37,2013-04-15 13:09:00,
2013-04-15 09:19:00,55.9,47.0,28.12,NNE,26,3.0,6.0,72,0.00,CLR,,0.00,WeatherDisplay:10.37,2013-04-15 13:19:00,
2013-04-15 09:29:00,55.9,45.9,28.12,NNE,31,5.0,6.0,69,0.00,CLR,,0.00,WeatherDisplay:10.37,2013-04-15 13:29:00,
2013-04-15 09:39:00,56.1,45.7,28.15,NNE,21,3.0,6.0,68,0.00,CLR,,0.00,WeatherDisplay:10.37,2013-04-15 13:39:00,
2013-04-15 09:49:00,56.5,46.0,28.15,NNE,23,1.0,6.0,68,0.00,CLR,,0.00,WeatherDisplay:10.37,2013-04-15 13:49:00,
2013-04-15 09:59:00,56.8,46.0,28.15,NNE,33,3.0,6.0,67,0.00,CLR,,0.00,WeatherDisplay:10.37,2013-04-15 13:59:00,
2013-04-15 10:09:00,57.2,45.9,28.15,NNE,21,3.0,6.0,66,0.00,CLR,,0.00,WeatherDisplay:10.37,2013-04-15 14:09:00,
2013-04-15 10:19:00,57.8,45.7,28.15,NNE,32,2.0,5.0,64,0.00,CLR,,0.00,WeatherDisplay:10.37,2013-04-15 14:19:00,
2013-04-15 10:29:00,58.3,45.3,28.15,NNE,28,2.0,6.0,62,0.00,CLR,,0.00,WeatherDisplay:10.37,2013-04-15 14:29:00,
2013-04-15 10:39:00,58.5,45.1,28.15,NNE,27,3.0,6.0,61,0.00,CLR,,0.00,WeatherDisplay:10.37,2013-04-15 14:39:00,
2013-04-15 10:49:00,58.8,44.5,28.15,NNE,30,1.0,5.0,59,0.00,CLR,,0.00,WeatherDisplay:10.37,2013-04-15 14:49:00,
2013-04-15 10:59:00,59.5,44.3,28.15,NE,40,2.0,5.0,57,0.00,CLR,,0.00,WeatherDisplay:10.37,2013-04-15 14:59:00,
2013-04-15 11:09:00,60.1,44.8,28.15,NNE,26,2.0,5.0,57,0.00,CLR,,0.00,WeatherDisplay:10.37,2013-04-15 15:09:00,
2013-04-15 11:19:00,60.8,43.5,28.15,NE,40,2.0,6.0,53,0.00,CLR,,0.00,WeatherDisplay:10.37,2013-04-15 15:19:00,
2013-04-15 11:29:00,61.6,44.3,28.15,NNE,20,1.0,4.0,53,0.00,CLR,,0.00,WeatherDisplay:10.37,2013-04-15 15:29:00,
2013-04-15 11:39:00,62.6,44.2,28.15,North,9,1.0,5.0,51,0.00,CLR,,0.00,WeatherDisplay:10.37,2013-04-15 15:39:00,
2013-04-15 11:49:00,64.1,46.1,28.18,NNE,25,5.0,6.0,52,0.00,CLR,,0.00,WeatherDisplay:10.37,2013-04-15 15:49:00,
2013-04-15 11:59:00,65.3,42.8,28.18,NE,52,5.0,6.0,44,0.00,CLR,,0.00,WeatherDisplay:10.37,2013-04-15 15:59:00,
2013-04-15 12:09:00,66.9,46.0,28.15,NNE,23,2.0,6.0,47,0.00,CLR,,0.00,WeatherDisplay:10.37,2013-04-15 16:09:00,
2013-04-15 12:19:00,67.1,44.4,28.18,NW,325,2.0,4.0,44,0.00,CLR,,0.00,WeatherDisplay:10.37,2013-04-15 16:19:00,
2013-04-15 12:29:00,67.6,44.9,28.18,NNW,333,1.0,5.0,44,0.00,CLR,,0.00,WeatherDisplay:10.37,2013-04-15 16:29:00,
2013-04-15 12:39:00,66.8,41.0,28.18,ENE,77,3.0,6.0,39,0.00,CLR,,0.00,WeatherDisplay:10.37,2013-04-15 16:39:00,
2013-04-15 12:49:00,66.4,41.3,28.18,NE,54,2.0,6.0,40,0.00,CLR,,0.00,WeatherDisplay:10.37,2013-04-15 16:49:00,
2013-04-15 12:59:00,66.2,43.0,28.18,NNW,344,2.0,5.0,43,0.00,CLR,,0.00,WeatherDisplay:10.37,2013-04-15 16:59:00,
2013-04-15 13:09:00,67.3,43.4,28.18,NNW,335,2.0,4.0,42,0.00,CLR,,0.00,WeatherDisplay:10.37,2013-04-15 17:09:00,
2013-04-15 13:19:00,68.2,41.6,28.18,North,0,2.0,5.0,38,0.00,CLR,,0.00,WeatherDisplay:10.37,2013-04-15 17:19:00,
2013-04-15 13:29:00,68.4,41.1,28.18,North,352,2.0,3.0,37,0.00,CLR,,0.00,WeatherDisplay:10.37,2013-04-15 17:29:00,
2013-04-15 13:39:00,67.8,41.3,28.18,NNW,335,0.0,4.0,38,0.00,CLR,,0.00,WeatherDisplay:10.37,2013-04-15 17:39:00,
2013-04-15 13:49:00,68.9,43.6,28.18,NNW,330,2.0,6.0,40,0.00,CLR,,0.00,WeatherDisplay:10.37,2013-04-15 17:49:00,
2013-04-15 13:59:00,68.5,41.9,28.18,NNW,344,2.0,4.0,38,0.00,CLR,,0.00,WeatherDisplay:10.37,2013-04-15 17:59:00,
2013-04-15 14:09:00,67.5,41.0,28.18,NNE,14,1.0,5.0,38,0.00,CLR,,0.00,WeatherDisplay:10.37,2013-04-15 18:09:00,
2013-04-15 14:19:00,67.6,41.8,28.18,NW,314,1.0,3.0,39,0.00,CLR,,0.00,WeatherDisplay:10.37,2013-04-15 18:19:00,
2013-04-15 14:29:00,68.5,41.9,28.18,NW,325,3.0,4.0,38,0.00,CLR,,0.00,WeatherDisplay:10.37,2013-04-15 18:29:00,
2013-04-15 14:39:00,69.1,41.7,28.18,NE,49,2.0,9.0,37,0.00,CLR,,0.00,WeatherDisplay:10.37,2013-04-15 18:39:00,
2013-04-15 14:49:00,68.2,42.3,28.18,North,349,1.0,4.0,39,0.00,CLR,,0.00,WeatherDisplay:10.37,2013-04-15 18:49:00,
2013-04-15 14:59:00,70.2,42.0,28.18,North,5,3.0,5.0,36,0.00,CLR,,0.00,WeatherDisplay:10.37,2013-04-15 18:59:00,
2013-04-15 15:09:00,70.9,41.9,28.18,North,359,1.0,6.0,35,0.00,CLR,,0.00,WeatherDisplay:10.37,2013-04-15 19:09:00,
2013-04-15 15:19:00,70.9,41.1,28.18,NNE,26,2.0,7.0,34,0.00,CLR,,0.00,WeatherDisplay:10.37,2013-04-15 19:19:00,
2013-04-15 15:29:00,71.4,40.8,28.18,NNW,328,3.0,5.0,33,0.00,CLR,,0.00,WeatherDisplay:10.37,2013-04-15 19:29:00,
2013-04-15 15:39:00,71.4,43.1,28.18,SW,227,1.0,4.0,36,0.00,CLR,,0.00,WeatherDisplay:10.37,2013-04-15 19:39:00,
2013-04-15 15:49:00,70.0,41.1,28.18,NE,39,2.0,6.0,35,0.00,CLR,,0.00,WeatherDisplay:10.37,2013-04-15 19:49:00,
2013-04-15 15:59:00,70.2,41.3,28.18,NNE,27,1.0,5.0,35,0.00,CLR,,0.00,WeatherDisplay:10.37,2013-04-15 19:59:00,
2013-04-15 16:09:00,72.3,41.6,28.18,NNE,23,3.0,6.0,33,0.00,CLR,,0.00,WeatherDisplay:10.37,2013-04-15 20:09:00,
2013-04-15 16:19:00,73.3,42.4,28.18,ENE,65,2.0,6.0,33,0.00,CLR,,0.00,WeatherDisplay:10.37,2013-04-15 20:19:00,
2013-04-15 16:29:00,71.2,40.6,28.18,NE,44,2.0,6.0,33,0.00,CLR,,0.00,WeatherDisplay:10.37,2013-04-15 20:29:00,
2013-04-15 16:39:00,72.8,42.8,28.18,NNE,15,1.0,5.0,34,0.00,CLR,,0.00,WeatherDisplay:10.37,2013-04-15 20:39:00,
2013-04-15 16:49:00,73.4,41.7,28.21,NNE,27,3.0,8.0,32,0.00,CLR,,0.00,WeatherDisplay:10.37,2013-04-15 20:49:00,
2013-04-15 16:59:00,72.7,41.2,28.21,NE,41,1.0,5.0,32,0.00,CLR,,0.00,WeatherDisplay:10.37,2013-04-15 20:59:00,
2013-04-15 17:09:00,73.9,43.0,28.21,North,357,2.0,3.0,33,0.00,CLR,,0.00,WeatherDisplay:10.37,2013-04-15 21:09:00,
2013-04-15 17:19:00,74.8,42.2,28.21,NNE,12,2.0,5.0,31,0.00,CLR,,0.00,WeatherDisplay:10.37,2013-04-15 21:19:00,
2013-04-15 17:29:00,73.8,41.2,28.21,North,356,3.0,6.0,31,0.00,CLR,,0.00,WeatherDisplay:10.37,2013-04-15 21:29:00,
2013-04-15 17:39:00,73.2,41.6,28.21,NNE,12,3.0,8.0,32,0.00,CLR,,0.00,WeatherDisplay:10.37,2013-04-15 21:39:00,
2013-04-15 17:49:00,71.7,40.3,28.21,NE,40,2.0,6.0,32,0.00,CLR,,0.00,WeatherDisplay:10.37,2013-04-15 21:49:00,
2013-04-15 17:59:00,71.6,40.2,28.21,NNE,26,5.0,9.0,32,0.00,CLR,,0.00,WeatherDisplay:10.37,2013-04-15 21:59:00,
2013-04-15 18:09:00,71.2,40.6,28.21,NNE,31,5.0,7.0,33,0.00,CLR,,0.00,WeatherDisplay:10.37,2013-04-15 22:09:00,
2013-04-15 18:19:00,70.8,40.2,28.21,NE,45,6.0,9.0,33,0.00,CLR,,0.00,WeatherDisplay:10.37,2013-04-15 22:19:00,
2013-04-15 18:29:00,70.1,39.7,28.21,NNE,26,5.0,9.0,33,0.00,CLR,,0.00,WeatherDisplay:10.37,2013-04-15 22:29:00,
2013-04-15 18:39:00,69.4,39.8,28.21,NE,52,6.0,7.0,34,0.00,CLR,,0.00,WeatherDisplay:10.37,2013-04-15 22:39:00,
2013-04-15 18:49:00,69.0,39.4,28.21,NE,44,5.0,8.0,34,0.00,CLR,,0.00,WeatherDisplay:10.37,2013-04-15 22:49:00,
2013-04-15 18:59:00,68.7,39.2,28.21,NNE,27,3.0,6.0,34,0.00,CLR,,0.00,WeatherDisplay:10.37,2013-04-15 22:59:00,
2013-04-15 19:09:00,67.9,38.5,28.21,NE,42,3.0,8.0,34,0.00,CLR,,0.00,WeatherDisplay:10.37,2013-04-15 23:09:00,
2013-04-15 19:19:00,67.1,38.5,28.21,NE,40,5.0,9.0,35,0.00,CLR,,0.00,WeatherDisplay:10.37,2013-04-15 23:19:00,
2013-04-15 19:29:00,66.4,38.6,28.21,NE,41,3.0,6.0,36,0.00,CLR,,0.00,WeatherDisplay:10.37,2013-04-15 23:29:00,
2013-04-15 19:39:00,65.2,38.9,28.21,NE,43,5.0,7.0,38,0.00,CLR,,0.00,WeatherDisplay:10.37,2013-04-15 23:39:00,
2013-04-15 19:49:00,64.2,39.4,28.21,NE,50,3.0,6.0,40,0.00,CLR,,0.00,WeatherDisplay:10.37,2013-04-15 23:49:00,
2013-04-15 19:59:00,63.5,40.0,28.21,ENE,57,1.0,5.0,42,0.00,CLR,,0.00,WeatherDisplay:10.37,2013-04-15 23:59:00,
2013-04-15 20:09:00,63.1,40.3,28.21,NE,54,3.0,6.0,43,0.00,CLR,,0.00,WeatherDisplay:10.37,2013-04-16 00:09:00,
2013-04-15 20:19:00,62.5,40.3,28.21,NE,56,3.0,9.0,44,0.00,CLR,,0.00,WeatherDisplay:10.37,2013-04-16 00:19:00,
2013-04-15 20:29:00,61.9,40.3,28.21,NE,49,3.0,6.0,45,0.00,CLR,,0.00,WeatherDisplay:10.37,2013-04-16 00:29:00,
2013-04-15 20:39:00,61.5,39.9,28.24,NE,37,5.0,8.0,45,0.00,CLR,,0.00,WeatherDisplay:10.37,2013-04-16 00:39:00,
2013-04-15 20:49:00,61.0,40.0,28.24,NE,56,5.0,7.0,46,0.00,CLR,,0.00,WeatherDisplay:10.37,2013-04-16 00:49:00,
2013-04-15 20:59:00,60.4,40.1,28.24,NE,34,2.0,6.0,47,0.00,CLR,,0.00,WeatherDisplay:10.37,2013-04-16 00:59:00,
2013-04-15 21:09:00,59.7,40.0,28.21,NE,56,2.0,5.0,48,0.00,CLR,,0.00,WeatherDisplay:10.37,2013-04-16 01:09:00,
2013-04-15 21:19:00,59.4,40.2,28.24,ENE,69,2.0,5.0,49,0.00,CLR,,0.00,WeatherDisplay:10.37,2013-04-16 01:19:00,
2013-04-15 21:29:00,59.2,40.5,28.24,NE,41,2.0,5.0,50,0.00,CLR,,0.00,WeatherDisplay:10.37,2013-04-16 01:29:00,
2013-04-15 21:39:00,58.8,40.7,28.24,NNE,33,1.0,6.0,51,0.00,CLR,,0.00,WeatherDisplay:10.37,2013-04-16 01:39:00,
2013-04-15 21:49:00,58.3,40.7,28.24,NE,41,2.0,6.0,52,0.00,CLR,,0.00,WeatherDisplay:10.37,2013-04-16 01:49:00,
2013-04-15 21:59:00,58.1,41.5,28.24,NE,54,2.0,5.0,54,0.00,CLR,,0.00,WeatherDisplay:10.37,2013-04-16 01:59:00,
2013-04-15 22:09:00,57.9,41.4,28.24,NNE,17,2.0,6.0,54,0.00,CLR,,0.00,WeatherDisplay:10.37,2013-04-16 02:09:00,
2013-04-15 22:19:00,57.7,41.6,28.24,NNE,31,3.0,5.0,55,0.00,CLR,,0.00,WeatherDisplay:10.37,2013-04-16 02:19:00,
2013-04-15 22:29:00,57.3,41.2,28.24,NNE,28,2.0,3.0,55,0.00,CLR,,0.00,WeatherDisplay:10.37,2013-04-16 02:29:00,
2013-04-15 22:39:00,57.0,41.5,28.24,NE,47,2.0,4.0,56,0.00,CLR,,0.00,WeatherDisplay:10.37,2013-04-16 02:39:00,
2013-04-15 22:49:00,56.8,41.8,28.24,NE,41,0.0,4.0,57,0.00,CLR,,0.00,WeatherDisplay:10.37,2013-04-16 02:49:00,
2013-04-15 22:59:00,56.5,41.4,28.24,NE,36,0.0,4.0,57,0.00,CLR,,0.00,WeatherDisplay:10.37,2013-04-16 02:59:00,
2013-04-15 23:09:00,55.9,40.5,28.24,NNE,19,0.0,2.0,56,0.00,CLR,,0.00,WeatherDisplay:10.37,2013-04-16 03:09:00,
2013-04-15 23:19:00,55.6,40.6,28.24,West,274,1.0,1.0,57,0.00,CLR,,0.00,WeatherDisplay:10.37,2013-04-16 03:19:00,
2013-04-15 23:29:00,55.0,40.1,28.24,NW,305,0.0,1.0,57,0.00,CLR,,0.00,WeatherDisplay:10.37,2013-04-16 03:29:00,
2013-04-15 23:39:00,54.7,40.2,28.24,NW,326,0.0,2.0,58,0.00,CLR,,0.00,WeatherDisplay:10.37,2013-04-16 03:39:00,
2013-04-15 23:49:00,54.3,40.7,28.24,NNE,24,0.0,2.0,60,0.00,CLR,,0.00,WeatherDisplay:10.37,2013-04-16 03:49:00,
2013-04-15 23:59:00,54.0,40.9,28.24,SW,220,0.0,2.0,61,0.00,CLR,,0.00,WeatherDisplay:10.37,2013-04-16 03:59:00,